createdAt,value
2017-12-11T00:00:14.980Z,94.72
2017-12-11T00:05:15.839Z,94.57
2017-12-11T00:10:38.175Z,94.44
2017-12-11T00:15:39.008Z,94.30
2017-12-11T00:20:39.824Z,94.15
2017-12-11T00:37:00.762Z,94.16
2017-12-11T00:42:01.556Z,94.17
2017-12-11T00:47:02.359Z,94.06
2017-12-11T00:52:03.145Z,94.10
2017-12-11T00:57:03.928Z,94.08
2017-12-11T01:02:04.734Z,94.24
2017-12-11T01:07:05.530Z,94.46
2017-12-11T01:12:06.347Z,95.05
2017-12-11T01:28:23.573Z,95.60
2017-12-11T01:33:24.673Z,95.94
2017-12-11T01:38:25.452Z,95.89
2017-12-11T01:43:26.258Z,95.87
2017-12-11T01:48:51.729Z,96.10
2017-12-11T01:53:52.516Z,96.16
2017-12-11T01:58:53.287Z,96.37
2017-12-11T02:03:54.058Z,96.29
2017-12-11T02:08:54.847Z,96.37
2017-12-11T02:13:55.645Z,96.23
2017-12-11T02:18:56.445Z,96.25
2017-12-11T02:46:13.517Z,96.51
2017-12-11T02:51:14.303Z,96.57
2017-12-11T02:56:15.069Z,96.56
2017-12-11T03:01:15.950Z,96.68
2017-12-11T03:06:16.771Z,96.77
2017-12-11T03:11:17.551Z,96.68
2017-12-11T03:16:18.356Z,96.72
2017-12-11T03:21:19.142Z,96.91
2017-12-11T03:26:20.012Z,96.98
2017-12-11T03:31:20.818Z,97.06
2017-12-11T03:36:21.616Z,97.13
2017-12-11T03:41:22.380Z,96.98
2017-12-11T03:46:24.251Z,96.95
2017-12-11T03:51:25.211Z,96.88
2017-12-11T03:56:25.973Z,96.94
2017-12-11T04:01:26.762Z,96.93
2017-12-11T04:06:27.561Z,96.78
2017-12-11T04:11:38.777Z,96.95
2017-12-11T04:16:39.560Z,96.91
2017-12-11T04:21:40.363Z,96.97
2017-12-11T04:26:41.145Z,96.90
2017-12-11T04:31:41.917Z,97.09
2017-12-11T04:36:49.534Z,97.21
2017-12-11T04:41:50.336Z,97.25
2017-12-11T04:46:51.115Z,97.35
2017-12-11T04:51:51.909Z,97.37
2017-12-11T04:56:52.684Z,97.34
2017-12-11T05:12:48.917Z,97.55
2017-12-11T05:17:49.773Z,97.49
2017-12-11T05:22:50.554Z,97.39
2017-12-11T05:27:51.348Z,97.43
2017-12-11T06:16:41.593Z,97.66
2017-12-11T06:21:42.545Z,97.64
2017-12-11T06:43:06.304Z,97.78
2017-12-11T06:48:07.075Z,97.75
2017-12-11T07:09:30.181Z,97.48
2017-12-11T07:14:33.040Z,97.61
2017-12-11T07:19:33.863Z,97.65
2017-12-11T07:24:34.663Z,97.59
2017-12-11T07:36:37.413Z,97.54
2017-12-11T07:46:57.217Z,97.40
2017-12-11T08:00:08.076Z,97.12
2017-12-11T08:05:08.881Z,96.61
2017-12-11T08:10:09.653Z,96.20
2017-12-11T08:15:10.457Z,96.03
2017-12-11T08:20:11.268Z,95.58
2017-12-11T08:25:12.048Z,95.09
2017-12-11T08:30:12.797Z,94.96
2017-12-11T08:35:13.601Z,94.78
2017-12-11T08:40:14.368Z,94.48
2017-12-11T08:45:15.151Z,94.17
2017-12-11T08:50:15.930Z,93.83
2017-12-11T08:55:16.730Z,93.12
2017-12-11T09:00:17.493Z,93.32
2017-12-11T09:05:18.294Z,92.40
2017-12-11T09:10:19.096Z,91.43
2017-12-11T09:15:19.906Z,91.17
2017-12-11T09:20:20.710Z,92.32
2017-12-11T09:25:21.512Z,92.83
2017-12-11T09:30:22.281Z,92.97
2017-12-11T09:35:23.078Z,92.64
2017-12-11T09:40:23.906Z,92.32
2017-12-11T09:45:24.669Z,92.21
2017-12-11T09:50:25.470Z,92.70
2017-12-11T09:55:26.229Z,92.86
2017-12-11T10:00:27.019Z,91.22
2017-12-11T10:05:27.782Z,90.40
2017-12-11T10:10:28.543Z,90.15
2017-12-11T10:15:29.340Z,90.49
2017-12-11T10:20:30.121Z,91.17
2017-12-11T10:25:30.912Z,91.46
2017-12-11T10:30:31.723Z,91.25
2017-12-11T10:35:32.493Z,91.09
2017-12-11T10:40:33.309Z,91.36
2017-12-11T10:45:34.120Z,91.02
2017-12-11T10:50:34.936Z,91.30
2017-12-11T10:55:35.740Z,90.54
2017-12-11T11:00:36.557Z,90.83
2017-12-11T11:05:37.354Z,90.59
2017-12-11T11:10:38.176Z,90.48
2017-12-11T11:15:39.605Z,90.97
2017-12-11T11:20:40.418Z,90.66
2017-12-11T11:25:46.472Z,90.60
2017-12-11T11:30:49.261Z,89.96
2017-12-11T11:35:50.089Z,90.10
2017-12-11T11:40:50.904Z,89.56
2017-12-11T11:45:51.710Z,89.54
2017-12-11T11:50:52.481Z,89.35
2017-12-11T11:55:53.690Z,89.25
2017-12-11T12:00:54.547Z,89.14
2017-12-11T12:05:55.340Z,88.73
2017-12-11T12:10:56.197Z,89.07
2017-12-11T12:15:56.951Z,88.84
2017-12-11T12:20:57.742Z,87.51
2017-12-11T12:25:58.530Z,87.86
2017-12-11T12:30:59.305Z,88.43
2017-12-11T12:36:00.105Z,88.56
2017-12-11T12:41:01.482Z,88.88
2017-12-11T12:46:02.352Z,88.64
2017-12-11T12:51:27.339Z,88.63
2017-12-11T12:56:39.267Z,88.74
2017-12-11T13:18:06.223Z,89.60
2017-12-11T13:28:38.861Z,89.41
2017-12-11T13:33:39.643Z,89.17
2017-12-11T13:38:40.427Z,89.06
2017-12-11T13:44:02.174Z,89.16
2017-12-11T13:49:23.164Z,89.52
2017-12-11T14:05:22.760Z,88.59
2017-12-11T14:15:51.779Z,88.84
2017-12-11T14:21:01.139Z,88.34
2017-12-11T14:58:54.967Z,86.90
2017-12-11T15:04:10.531Z,87.18
2017-12-11T15:09:15.322Z,87.65
2017-12-11T15:14:34.061Z,88.24
2017-12-11T15:19:34.883Z,87.88
2017-12-11T15:24:35.754Z,88.18
2017-12-11T15:29:36.879Z,88.24
2017-12-11T15:34:43.393Z,87.65
2017-12-11T15:39:44.189Z,87.96
2017-12-11T15:44:45.004Z,87.96
2017-12-11T15:49:45.770Z,87.25
2017-12-11T15:54:56.753Z,87.71
2017-12-11T16:05:43.420Z,88.57
2017-12-11T16:21:43.065Z,89.25
2017-12-11T16:26:43.898Z,88.99
2017-12-11T16:31:52.227Z,88.82
2017-12-11T16:36:53.046Z,88.92
2017-12-11T16:41:53.952Z,89.45
2017-12-11T16:46:54.732Z,90.42
2017-12-11T16:51:55.565Z,90.60
2017-12-11T16:56:56.341Z,90.36
2017-12-11T17:02:02.199Z,90.45
2017-12-11T17:07:03.023Z,90.72
2017-12-11T17:17:54.125Z,91.42
2017-12-11T17:28:40.046Z,91.25
2017-12-11T17:33:40.983Z,91.21
2017-12-11T17:38:42.399Z,91.40
2017-12-11T17:43:43.725Z,91.31
2017-12-11T17:54:11.889Z,91.22
2017-12-11T17:59:13.668Z,91.71
2017-12-11T18:04:18.277Z,92.49
2017-12-11T18:09:25.481Z,93.22
2017-12-11T18:14:29.713Z,93.77
2017-12-11T18:19:30.532Z,94.19
2017-12-11T18:30:19.761Z,94.99
2017-12-11T18:35:23.874Z,95.62
2017-12-11T18:40:27.798Z,95.58
2017-12-11T18:45:32.760Z,95.65
2017-12-11T18:50:44.433Z,95.82
2017-12-11T18:55:55.217Z,95.96
2017-12-11T19:00:58.152Z,95.84
2017-12-11T19:06:05.725Z,95.92
2017-12-11T19:11:16.659Z,96.00
2017-12-11T19:16:41.446Z,95.96
2017-12-11T19:21:44.224Z,95.90
2017-12-11T19:26:56.825Z,96.09
2017-12-11T19:32:12.834Z,96.34
2017-12-11T19:37:18.657Z,96.14
2017-12-11T19:47:46.892Z,96.08
2017-12-11T19:52:50.826Z,95.96
2017-12-11T19:58:05.430Z,95.63
2017-12-11T20:03:13.181Z,95.61
2017-12-11T20:08:13.965Z,95.65
2017-12-11T20:13:21.935Z,95.97
2017-12-11T20:18:45.435Z,96.06
2017-12-11T20:23:46.389Z,96.28
2017-12-11T20:29:01.173Z,96.10
2017-12-11T20:39:36.923Z,95.56
2017-12-11T20:55:46.911Z,94.89
2017-12-11T21:00:55.884Z,94.73
2017-12-11T21:06:11.353Z,94.45
2017-12-11T21:11:12.210Z,94.62
2017-12-11T21:16:18.645Z,95.11
2017-12-11T21:21:26.200Z,95.27
2017-12-11T21:26:28.010Z,95.28
2017-12-11T21:31:28.878Z,94.70
2017-12-11T21:36:29.661Z,94.33
2017-12-11T21:41:30.457Z,94.45
2017-12-11T21:46:31.245Z,94.45
2017-12-11T21:51:39.285Z,94.35
2017-12-11T21:56:43.362Z,93.99
2017-12-11T22:01:44.943Z,93.79
2017-12-11T22:07:03.031Z,94.08
2017-12-11T22:12:03.812Z,94.34
2017-12-11T22:17:04.605Z,94.18
2017-12-11T22:22:05.706Z,94.16
2017-12-11T22:27:17.181Z,93.65
2017-12-11T22:32:17.952Z,93.53
2017-12-11T22:37:18.724Z,92.58
2017-12-11T22:42:19.509Z,91.29
2017-12-11T22:47:20.322Z,90.82
2017-12-11T22:52:21.149Z,91.05
2017-12-11T22:57:21.904Z,91.84
2017-12-11T23:02:22.695Z,92.11
2017-12-11T23:07:23.491Z,92.49
2017-12-11T23:12:24.264Z,92.82
2017-12-11T23:17:25.114Z,93.36
2017-12-11T23:22:29.652Z,93.34
2017-12-11T23:27:30.461Z,93.53
2017-12-11T23:32:31.262Z,93.60
2017-12-11T23:37:32.025Z,93.64
2017-12-11T23:42:32.799Z,93.86
2017-12-11T23:47:33.588Z,93.86
2017-12-11T23:52:34.357Z,93.96
2017-12-11T23:57:35.132Z,93.80
